createdAt,value
2022-08-09T00:12:29.844Z,78.74
2022-08-09T00:27:43.017Z,79.54
2022-08-09T00:44:13.799Z,80.81
2022-08-09T00:58:09.772Z,81.22
2022-08-09T01:13:23.214Z,81.64
2022-08-09T01:28:27.563Z,82.54
2022-08-09T01:43:50.339Z,83.28
2022-08-09T01:58:57.908Z,84.22
2022-08-09T02:14:06.933Z,84.72
2022-08-09T02:29:19.081Z,85.43
2022-08-09T02:44:29.244Z,85.98
2022-08-09T02:59:36.895Z,86.78
2022-08-09T03:14:42.959Z,88.47
2022-08-09T03:29:57.958Z,89.73
2022-08-09T03:45:06.212Z,89.70
2022-08-09T04:00:12.598Z,90.03
2022-08-09T04:15:38.821Z,90.83
2022-08-09T04:30:46.504Z,91.80
2022-08-09T04:45:53.643Z,91.93
2022-08-09T05:00:57.573Z,92.31
2022-08-09T05:16:02.931Z,92.44
2022-08-09T05:31:09.633Z,92.41
2022-08-09T05:46:15.879Z,92.72
2022-08-09T06:01:19.644Z,92.83
2022-08-09T06:16:23.719Z,92.32
2022-08-09T06:31:31.087Z,91.94
2022-08-09T06:46:39.620Z,91.33
2022-08-09T07:01:57.878Z,89.15
2022-08-09T07:17:08.233Z,87.14
2022-08-09T07:32:12.286Z,85.54
2022-08-09T07:47:16.333Z,83.07
2022-08-09T08:02:24.762Z,82.46
2022-08-09T08:17:52.260Z,83.05
2022-08-09T08:32:54.240Z,83.65
2022-08-09T08:47:59.880Z,86.61
2022-08-09T09:03:08.888Z,90.41
2022-08-09T09:18:16.598Z,93.13
2022-08-09T09:33:19.717Z,94.45
2022-08-09T09:48:24.546Z,95.39
2022-08-09T10:03:39.904Z,96.53
2022-08-09T10:18:54.768Z,96.62
2022-08-09T10:34:08.704Z,95.45
2022-08-09T10:49:51.554Z,91.09
2022-08-09T11:05:25.488Z,87.05
2022-08-09T11:20:45.443Z,81.89
2022-08-09T11:35:56.537Z,74.31
2022-08-09T11:51:21.363Z,65.20
2022-08-09T12:06:32.213Z,64.66
2022-08-09T12:21:50.611Z,61.18
2022-08-09T12:36:58.959Z,59.54
2022-08-09T12:52:20.698Z,55.62
2022-08-09T13:08:11.035Z,52.73
2022-08-09T13:24:48.382Z,48.49
2022-08-09T13:38:55.530Z,48.49
2022-08-09T13:54:01.488Z,49.76
2022-08-09T14:09:06.299Z,51.94
2022-08-09T14:24:18.530Z,54.14
2022-08-09T14:39:39.853Z,56.57
2022-08-09T14:54:49.818Z,58.38
2022-08-09T15:10:04.578Z,58.84
2022-08-09T15:25:14.485Z,58.87
2022-08-09T15:40:32.280Z,58.12
2022-08-09T15:56:04.744Z,57.39
2022-08-09T16:11:02.936Z,56.89
2022-08-09T16:26:06.730Z,56.31
2022-08-09T16:41:39.416Z,56.05
2022-08-09T16:56:49.272Z,56.66
2022-08-09T17:11:53.477Z,57.24
2022-08-09T17:26:56.587Z,58.09
2022-08-09T17:42:02.296Z,58.87
2022-08-09T17:57:06.201Z,60.40
2022-08-09T18:12:20.047Z,61.54
2022-08-09T18:28:02.450Z,63.16
2022-08-09T18:42:53.668Z,64.47
2022-08-09T18:58:00.466Z,66.30
2022-08-09T19:13:18.614Z,68.20
2022-08-09T19:28:29.539Z,69.85
2022-08-09T19:44:00.941Z,71.50
2022-08-09T19:59:39.534Z,73.00
2022-08-09T20:14:28.128Z,73.64
2022-08-09T20:29:37.514Z,74.65
2022-08-09T20:44:41.946Z,78.35
2022-08-09T21:00:22.502Z,80.19
2022-08-09T21:15:34.971Z,81.41
2022-08-09T21:30:40.323Z,82.14
2022-08-09T21:45:44.728Z,83.24
2022-08-09T22:00:48.740Z,84.52
2022-08-09T22:15:55.736Z,85.19
2022-08-09T22:30:59.323Z,84.99
2022-08-09T22:48:12.787Z,86.55
2022-08-09T23:01:27.191Z,88.55
2022-08-09T23:16:31.983Z,91.70
2022-08-09T23:31:35.177Z,91.24
2022-08-09T23:46:38.217Z,91.37
